Terminal Aerodrome Forecast
Issued by NWS Cleveland, OH

Home | Current Version | Previous Version | Text Only | Print | Product List | Glossary On
Versions: 1 2 3 4 5 6 7 8 9 10 11 12 13 14 15 16 17 18 19 20
000
FTUS41 KCLE 282340
TAFCLE
TAF
KCLE 282340Z 2900/3006 09006KT P6SM SKC
     FM291500 20008KT P6SM BKN100
     FM291800 20010KT P6SM -TSRA SCT120CB BKN250
     FM300300 17006KT P6SM OVC050=

USA.gov is the U.S. government's official web portal to all federal, state and local government web resources and services.